Time;durP1;ratioP1;P1;durP2;ratioP2;P2;SDS_P1;SDS_P2;PMS_P1;PMS_P2;Temp;Humidity;BMP_temperature;BMP_pressure;BME280_temperature;BME280_humidity;BME280_pressure;Samples;Min_cycle;Max_cycle;Signal;HPM_P1;HPM_P2
2024/03/08 00:00:54;;;;;;;52.13;29.95;;;2.60;1.00;;;;;;5053395;28;20060;-69
2024/03/08 00:03:20;;;;;;;49.30;28.13;;;2.60;1.00;;;;;;5053162;28;20043;-70
2024/03/08 00:05:45;;;;;;;54.38;28.38;;;2.60;1.00;;;;;;5052890;28;20386;-70
2024/03/08 00:08:11;;;;;;;52.55;29.45;;;2.60;1.00;;;;;;5053026;28;20043;-70
2024/03/08 00:10:38;;;;;;;51.80;29.05;;;2.70;1.00;;;;;;5053066;28;20056;-70
2024/03/08 00:13:04;;;;;;;52.33;29.42;;;2.60;1.00;;;;;;5053093;28;20078;-70
2024/03/08 00:15:32;;;;;;;53.53;29.23;;;2.70;1.00;;;;;;5052650;28;20033;-70
2024/03/08 00:17:57;;;;;;;51.65;29.77;;;2.60;1.00;;;;;;5052783;28;20025;-70
2024/03/08 00:20:23;;;;;;;56.22;30.10;;;2.70;1.00;;;;;;5053044;28;20025;-70
2024/03/08 00:22:48;;;;;;;58.08;30.80;;;2.60;1.00;;;;;;5053022;28;20029;-70
2024/03/08 00:25:14;;;;;;;52.25;28.83;;;2.50;1.00;;;;;;5052998;28;20471;-70
2024/03/08 00:27:40;;;;;;;54.47;30.20;;;2.50;1.00;;;;;;5052913;28;20040;-70
2024/03/08 00:30:07;;;;;;;61.75;30.83;;;2.50;1.00;;;;;;5052937;28;20116;-70
2024/03/08 00:32:33;;;;;;;56.25;29.67;;;2.50;1.00;;;;;;5052395;28;20028;-70
2024/03/08 00:34:59;;;;;;;56.42;29.92;;;2.50;1.00;;;;;;5052262;28;20045;-70
2024/03/08 00:37:24;;;;;;;54.88;29.08;;;2.50;1.00;;;;;;5052524;28;20079;-70
2024/03/08 00:39:51;;;;;;;60.13;31.63;;;2.50;1.00;;;;;;5052930;28;20386;-69
2024/03/08 00:42:17;;;;;;;67.00;30.75;;;2.60;1.00;;;;;;5052623;28;20032;-70
2024/03/08 00:44:43;;;;;;;60.42;31.42;;;2.20;1.00;;;;;;5052684;28;20025;-69
2024/03/08 00:47:09;;;;;;;52.47;30.75;;;2.30;1.00;;;;;;5052301;28;20028;-70
2024/03/08 00:49:36;;;;;;;52.40;29.48;;;2.30;1.00;;;;;;5053900;28;20052;-70
2024/03/08 00:52:02;;;;;;;56.53;29.75;;;2.30;1.00;;;;;;5056424;28;20116;-70
2024/03/08 00:54:27;;;;;;;59.15;31.60;;;2.30;1.00;;;;;;5055983;28;20067;-70
2024/03/08 00:56:53;;;;;;;55.13;30.48;;;2.30;1.00;;;;;;5056144;28;20028;-69
2024/03/08 00:59:18;;;;;;;56.92;29.58;;;2.30;1.00;;;;;;5056279;28;20395;-70
2024/03/08 01:01:44;;;;;;;51.15;29.83;;;2.30;1.00;;;;;;5055854;28;20026;-70
2024/03/08 01:04:10;;;;;;;54.03;29.27;;;2.40;1.00;;;;;;5056420;28;20036;-70
2024/03/08 01:06:37;;;;;;;58.25;30.80;;;2.40;1.00;;;;;;5056265;28;20033;-70
2024/03/08 01:09:02;;;;;;;56.78;30.67;;;2.30;1.00;;;;;;5055690;28;20029;-70
2024/03/08 01:11:28;;;;;;;59.38;30.70;;;2.30;1.00;;;;;;5056076;28;20039;-70
2024/03/08 01:13:54;;;;;;;55.03;29.90;;;2.30;1.00;;;;;;5056070;28;20079;-70
2024/03/08 01:16:21;;;;;;;59.45;30.45;;;2.30;1.00;;;;;;5055888;28;20087;-70
2024/03/08 01:18:46;;;;;;;55.22;30.52;;;2.20;1.00;;;;;;5055646;28;20049;-70
2024/03/08 01:21:12;;;;;;;56.50;29.85;;;2.20;1.00;;;;;;5055890;28;20040;-70
2024/03/08 01:23:38;;;;;;;56.40;29.70;;;2.30;1.00;;;;;;5055811;28;20048;-69
2024/03/08 01:26:04;;;;;;;56.00;29.40;;;2.20;1.00;;;;;;5055827;28;20483;-70
2024/03/08 01:28:30;;;;;;;51.47;29.25;;;2.20;1.00;;;;;;5055770;28;20029;-70
2024/03/08 01:30:56;;;;;;;57.80;31.00;;;2.10;1.00;;;;;;5055402;28;20433;-69
2024/03/08 01:33:23;;;;;;;59.33;31.55;;;2.10;1.00;;;;;;5055422;28;20111;-70
2024/03/08 01:35:49;;;;;;;56.35;30.65;;;2.10;1.00;;;;;;5055598;28;20036;-70
2024/03/08 01:38:15;;;;;;;56.17;30.65;;;2.10;1.00;;;;;;5055423;28;20016;-69
2024/03/08 01:40:41;;;;;;;58.53;31.23;;;2.10;1.00;;;;;;5055462;28;20025;-69
2024/03/08 01:43:28;;;;;;;58.17;31.13;;;2.00;1.00;;;;;;5055512;28;20523;-70
2024/03/08 01:45:55;;;;;;;56.20;30.08;;;2.00;1.00;;;;;;5055012;28;20025;-70
2024/03/08 01:48:23;;;;;;;59.95;31.83;;;2.00;1.00;;;;;;5055505;28;20039;-70
2024/03/08 01:50:50;;;;;;;55.13;29.08;;;1.90;1.00;;;;;;5055424;28;20025;-70
2024/03/08 01:53:17;;;;;;;58.72;31.90;;;2.00;1.00;;;;;;5055398;28;20071;-70
2024/03/08 01:55:45;;;;;;;62.75;30.50;;;2.00;1.00;;;;;;5055146;28;20475;-69
2024/03/08 01:58:11;;;;;;;56.70;29.77;;;2.00;1.00;;;;;;5055254;28;20083;-69
2024/03/08 02:00:40;;;;;;;58.13;31.98;;;1.90;1.00;;;;;;5054821;28;20063;-70
2024/03/08 02:03:05;;;;;;;59.63;30.85;;;1.90;1.00;;;;;;5054936;28;20430;-69
2024/03/08 02:05:31;;;;;;;58.63;30.63;;;1.90;1.00;;;;;;5054621;28;20025;-70
2024/03/08 02:07:57;;;;;;;63.70;30.52;;;1.90;1.00;;;;;;5055074;28;20087;-69
2024/03/08 02:10:23;;;;;;;59.30;30.77;;;1.80;1.00;;;;;;5055213;28;20056;-69
2024/03/08 02:12:48;;;;;;;61.20;31.88;;;1.90;1.00;;;;;;5055118;28;20119;-69
2024/03/08 02:15:14;;;;;;;58.55;31.75;;;1.90;1.00;;;;;;5054435;28;20021;-69
2024/03/08 02:17:41;;;;;;;60.33;32.60;;;1.90;1.00;;;;;;5054570;28;20479;-69
2024/03/08 02:20:08;;;;;;;59.30;30.98;;;1.90;1.00;;;;;;5054463;28;20071;-69
2024/03/08 02:22:34;;;;;;;62.10;30.35;;;1.80;1.00;;;;;;5054674;28;20585;-70
2024/03/08 02:25:02;;;;;;;54.63;30.25;;;1.70;1.00;;;;;;5054766;28;20063;-70
2024/03/08 02:27:29;;;;;;;62.40;32.65;;;1.70;1.00;;;;;;5054742;28;20029;-69
2024/03/08 02:29:55;;;;;;;55.13;30.35;;;1.70;1.00;;;;;;5054801;28;20383;-69
2024/03/08 02:32:22;;;;;;;61.13;32.00;;;1.70;1.00;;;;;;5054654;28;20025;-70
2024/03/08 02:34:48;;;;;;;65.20;33.00;;;1.70;1.00;;;;;;5054365;28;20045;-70
2024/03/08 02:37:13;;;;;;;62.85;32.58;;;1.60;1.00;;;;;;5054270;28;20451;-70
2024/03/08 02:39:39;;;;;;;61.70;32.10;;;1.70;1.00;;;;;;5054352;28;20536;-70
2024/03/08 02:42:05;;;;;;;64.80;31.25;;;1.70;1.00;;;;;;5054425;28;20060;-70
2024/03/08 02:44:30;;;;;;;56.10;30.83;;;1.70;1.00;;;;;;5054326;28;20033;-70
2024/03/08 02:46:56;;;;;;;66.53;33.38;;;1.70;1.00;;;;;;5054329;28;20075;-70
2024/03/08 02:49:21;;;;;;;60.70;31.30;;;1.60;1.00;;;;;;5053879;28;20414;-70
2024/03/08 02:51:47;;;;;;;63.30;32.30;;;1.70;1.00;;;;;;5054236;28;20037;-70
2024/03/08 02:54:12;;;;;;;62.03;31.48;;;1.70;1.00;;;;;;5054098;28;20365;-70
2024/03/08 02:56:38;;;;;;;59.53;31.30;;;1.70;1.00;;;;;;5053966;28;20032;-70
2024/03/08 02:59:04;;;;;;;59.60;31.13;;;1.60;1.00;;;;;;5054095;28;20391;-70
2024/03/08 03:01:29;;;;;;;61.15;30.98;;;1.70;1.00;;;;;;5054052;28;20029;-70
2024/03/08 03:03:55;;;;;;;59.05;30.33;;;1.70;1.00;;;;;;5054028;28;20024;-70
2024/03/08 03:06:21;;;;;;;66.93;31.73;;;1.60;1.00;;;;;;5053988;28;20033;-70
2024/03/08 03:08:46;;;;;;;64.05;31.48;;;1.70;1.00;;;;;;5053838;28;20048;-70
2024/03/08 03:11:13;;;;;;;72.95;32.58;;;1.70;1.00;;;;;;5053850;28;20497;-70
2024/03/08 03:13:39;;;;;;;60.13;31.08;;;1.70;1.00;;;;;;5052955;28;20390;-70
2024/03/08 03:16:05;;;;;;;62.20;32.58;;;1.70;1.00;;;;;;5053699;28;20465;-70
2024/03/08 03:18:32;;;;;;;66.65;33.35;;;1.70;1.00;;;;;;5053763;28;20033;-70
2024/03/08 03:20:58;;;;;;;62.83;32.22;;;1.60;1.00;;;;;;5053738;28;20028;-70
2024/03/08 03:23:25;;;;;;;62.88;32.13;;;1.70;1.00;;;;;;5053686;28;20025;-70
2024/03/08 03:25:52;;;;;;;64.28;31.38;;;1.70;1.00;;;;;;5053603;28;20025;-70
2024/03/08 03:28:17;;;;;;;66.60;32.00;;;1.70;1.00;;;;;;5053735;28;20059;-70
2024/03/08 03:30:46;;;;;;;65.75;32.92;;;1.70;1.00;;;;;;5053516;28;20056;-69
2024/03/08 03:33:12;;;;;;;63.45;32.90;;;1.70;1.00;;;;;;5053436;28;20025;-70
2024/03/08 03:35:38;;;;;;;62.00;31.20;;;1.80;1.00;;;;;;5052997;28;20060;-70
2024/03/08 03:38:06;;;;;;;66.50;32.45;;;1.60;1.00;;;;;;5053495;28;20021;-70
2024/03/08 03:40:33;;;;;;;60.65;32.20;;;1.60;1.00;;;;;;5053418;28;20029;-70
2024/03/08 03:42:59;;;;;;;65.72;33.88;;;1.60;1.00;;;;;;5053490;28;20021;-69
2024/03/08 03:45:25;;;;;;;63.25;31.65;;;1.60;1.00;;;;;;5053417;28;20111;-70
2024/03/08 03:47:51;;;;;;;67.07;31.38;;;1.60;1.00;;;;;;5053026;28;20588;-70
2024/03/08 03:50:19;;;;;;;61.70;33.00;;;1.60;1.00;;;;;;5053266;28;20033;-70
2024/03/08 03:52:45;;;;;;;75.43;34.13;;;1.60;1.00;;;;;;5052913;28;20025;-69
2024/03/08 03:55:11;;;;;;;70.05;32.47;;;1.50;1.00;;;;;;5053351;28;20037;-69
2024/03/08 03:57:38;;;;;;;73.07;34.58;;;1.50;1.00;;;;;;5052719;28;20051;-69
2024/03/08 04:00:04;;;;;;;68.65;33.58;;;1.60;1.00;;;;;;5053155;28;20087;-69
2024/03/08 04:02:30;;;;;;;64.88;33.03;;;1.50;1.00;;;;;;5053111;28;20036;-69
2024/03/08 04:04:55;;;;;;;61.65;31.77;;;1.50;1.00;;;;;;5053157;28;20029;-69
2024/03/08 04:07:21;;;;;;;67.47;33.10;;;1.40;1.00;;;;;;5053164;28;20116;-69
2024/03/08 04:09:47;;;;;;;66.80;33.60;;;1.40;1.00;;;;;;5053279;28;20091;-69
2024/03/08 04:12:12;;;;;;;66.53;33.20;;;1.40;1.00;;;;;;5053091;28;20116;-69
2024/03/08 04:14:41;;;;;;;64.13;34.10;;;1.30;1.00;;;;;;5053056;28;20084;-69
2024/03/08 04:17:08;;;;;;;67.70;34.95;;;1.30;1.00;;;;;;5052802;28;20035;-69
2024/03/08 04:19:34;;;;;;;68.15;34.00;;;1.50;1.00;;;;;;5053022;28;20083;-69
2024/03/08 04:22:00;;;;;;;70.05;32.92;;;1.40;1.00;;;;;;5052934;28;20057;-69
2024/03/08 04:24:26;;;;;;;64.30;33.53;;;1.40;1.00;;;;;;5053977;28;20036;-69
2024/03/08 04:26:52;;;;;;;67.70;33.85;;;1.50;1.00;;;;;;5057139;28;20029;-69
2024/03/08 04:29:18;;;;;;;72.57;34.25;;;1.50;1.00;;;;;;5057052;28;20071;-69
2024/03/08 04:31:44;;;;;;;76.43;35.83;;;1.50;1.00;;;;;;5056942;28;20029;-70
2024/03/08 04:34:10;;;;;;;68.07;34.22;;;1.50;1.00;;;;;;5056587;28;20057;-69
2024/03/08 04:36:36;;;;;;;67.00;33.95;;;1.50;1.00;;;;;;5056335;28;20036;-69
2024/03/08 04:39:02;;;;;;;73.20;35.22;;;1.40;1.00;;;;;;5056751;28;20035;-69
2024/03/08 04:41:27;;;;;;;71.65;34.90;;;1.40;1.00;;;;;;5056211;28;20029;-69
2024/03/08 04:43:53;;;;;;;67.90;34.90;;;1.40;1.00;;;;;;5056700;28;20025;-69
2024/03/08 04:46:19;;;;;;;72.13;35.63;;;1.30;1.00;;;;;;5056698;28;20548;-69
2024/03/08 04:48:44;;;;;;;70.30;33.53;;;1.30;1.00;;;;;;5056500;28;20029;-69
2024/03/08 04:51:10;;;;;;;65.70;35.70;;;1.20;1.00;;;;;;5056409;28;20029;-70
2024/03/08 04:53:36;;;;;;;66.32;34.78;;;1.30;1.00;;;;;;5056530;28;20474;-70
2024/03/08 04:56:05;;;;;;;69.40;33.35;;;1.40;1.00;;;;;;5056347;28;20399;-70
2024/03/08 04:58:35;;;;;;;66.82;35.15;;;1.40;1.00;;;;;;5055952;28;20021;-70
2024/03/08 05:01:01;;;;;;;69.93;34.38;;;1.40;1.00;;;;;;5055957;28;20056;-70
2024/03/08 05:03:27;;;;;;;70.85;36.05;;;1.40;1.00;;;;;;5056383;28;20025;-69
2024/03/08 05:05:53;;;;;;;73.40;35.13;;;1.30;1.00;;;;;;5055919;28;20079;-69
2024/03/08 05:08:19;;;;;;;74.88;35.35;;;1.30;1.00;;;;;;5056344;28;20068;-69
2024/03/08 05:10:45;;;;;;;70.18;35.50;;;1.40;1.00;;;;;;5056102;28;20029;-69
2024/03/08 05:13:10;;;;;;;66.00;33.75;;;1.40;1.00;;;;;;5056152;28;20538;-69
2024/03/08 05:15:36;;;;;;;67.72;34.03;;;1.40;1.00;;;;;;5055650;28;20395;-69
2024/03/08 05:18:02;;;;;;;73.30;36.55;;;1.40;1.00;;;;;;5055941;28;20037;-69
2024/03/08 05:20:27;;;;;;;66.22;34.70;;;1.30;1.00;;;;;;5055538;28;20390;-69
2024/03/08 05:22:53;;;;;;;75.07;35.92;;;1.30;1.00;;;;;;5055994;28;20037;-69
2024/03/08 05:25:18;;;;;;;74.07;35.25;;;1.30;1.00;;;;;;5055992;28;20487;-69
2024/03/08 05:27:44;;;;;;;71.05;35.03;;;1.20;1.00;;;;;;5055733;28;20025;-69
2024/03/08 05:30:14;;;;;;;69.25;34.03;;;1.20;1.00;;;;;;5055685;28;20495;-69
2024/03/08 05:32:44;;;;;;;76.78;37.35;;;1.20;1.00;;;;;;5055259;28;20431;-69
2024/03/08 05:35:12;;;;;;;74.40;35.67;;;1.30;1.00;;;;;;5055285;28;20063;-69
2024/03/08 05:37:38;;;;;;;67.25;34.50;;;1.20;1.00;;;;;;5054464;28;20483;-69
2024/03/08 05:40:08;;;;;;;72.20;35.22;;;1.20;1.00;;;;;;5055520;28;20020;-69
2024/03/08 05:42:35;;;;;;;72.60;36.45;;;1.20;1.00;;;;;;5055625;28;20497;-69
2024/03/08 05:45:00;;;;;;;72.88;35.35;;;1.20;1.00;;;;;;5055679;28;20044;-69
2024/03/08 05:47:26;;;;;;;65.13;34.03;;;1.20;1.00;;;;;;5055633;28;20028;-69
2024/03/08 05:49:53;;;;;;;76.88;37.22;;;1.20;1.00;;;;;;5055415;28;20548;-70
2024/03/08 05:52:19;;;;;;;71.57;35.25;;;1.20;1.00;;;;;;5055429;28;20035;-69
2024/03/08 05:54:45;;;;;;;74.55;37.55;;;1.20;1.00;;;;;;5055283;28;20483;-69
2024/03/08 05:57:11;;;;;;;72.07;35.65;;;1.20;1.00;;;;;;5054967;28;20138;-69
2024/03/08 05:59:36;;;;;;;71.60;35.08;;;1.20;1.00;;;;;;5054784;28;20487;-69
2024/03/08 06:02:03;;;;;;;81.70;38.47;;;1.10;1.00;;;;;;5055221;28;20021;-70
2024/03/08 06:04:29;;;;;;;84.65;37.78;;;1.10;1.00;;;;;;5055282;28;20071;-69
2024/03/08 06:06:56;;;;;;;77.70;36.70;;;1.20;1.00;;;;;;5055197;28;20032;-69
2024/03/08 06:09:23;;;;;;;74.80;37.33;;;1.20;1.00;;;;;;5055160;28;20028;-69
2024/03/08 06:11:49;;;;;;;74.70;36.40;;;1.30;1.00;;;;;;5055055;28;20483;-69
2024/03/08 06:14:18;;;;;;;75.82;36.78;;;1.30;1.00;;;;;;5054918;28;20092;-69
2024/03/08 06:16:44;;;;;;;82.72;38.55;;;1.30;1.00;;;;;;5054751;28;20032;-69
2024/03/08 06:19:10;;;;;;;75.80;36.75;;;1.40;1.00;;;;;;5054834;28;20032;-69
2024/03/08 06:21:36;;;;;;;74.32;36.55;;;1.50;1.00;;;;;;5054856;28;20491;-69
2024/03/08 06:24:01;;;;;;;79.93;37.63;;;1.60;1.00;;;;;;5054719;28;20024;-69
2024/03/08 06:26:28;;;;;;;77.00;37.97;;;1.70;1.00;;;;;;5054785;28;20033;-69
2024/03/08 06:28:54;;;;;;;72.60;35.33;;;1.90;1.00;;;;;;5054823;28;20091;-69
2024/03/08 06:31:20;;;;;;;74.45;35.45;;;2.20;1.00;;;;;;5054164;28;20037;-69
2024/03/08 06:33:45;;;;;;;72.47;35.40;;;2.30;1.00;;;;;;5054371;28;20053;-69
2024/03/08 06:36:11;;;;;;;64.13;33.67;;;2.40;1.00;;;;;;5054413;28;20479;-69
2024/03/08 06:38:42;;;;;;;76.85;36.63;;;2.50;1.00;;;;;;5054026;28;20055;-70
2024/03/08 06:41:08;;;;;;;67.97;34.33;;;2.70;1.00;;;;;;5054037;28;20021;-69
2024/03/08 06:43:34;;;;;;;74.00;36.47;;;2.90;99.90;;;;;;5055721;28;20031;-69
2024/03/08 06:46:00;;;;;;;65.28;34.35;;;3.20;99.90;;;;;;5066553;28;20486;-69
2024/03/08 06:48:25;;;;;;;67.38;34.47;;;3.70;99.90;;;;;;5063700;28;20036;-69
2024/03/08 06:50:51;;;;;;;59.80;32.08;;;4.20;27.50;;;;;;5054228;28;20039;-69
2024/03/08 06:53:18;;;;;;;67.85;34.72;;;4.40;99.90;;;;;;5054080;28;20036;-69
2024/03/08 06:55:44;;;;;;;58.47;31.98;;;4.80;1.00;;;;;;5054071;28;20029;-70
2024/03/08 06:58:10;;;;;;;65.68;32.20;;;5.10;99.90;;;;;;5054146;28;20036;-69
2024/03/08 07:00:36;;;;;;;60.85;33.55;;;5.40;99.90;;;;;;5054191;28;20025;-70
2024/03/08 07:03:02;;;;;;;61.13;32.05;;;5.80;1.00;;;;;;5054115;28;20066;-70
2024/03/08 07:05:29;;;;;;;56.38;31.67;;;5.90;99.90;;;;;;5053743;28;20037;-69
2024/03/08 07:07:54;;;;;;;57.95;32.30;;;6.00;99.90;;;;;;5053912;28;20029;-69
2024/03/08 07:10:23;;;;;;;62.10;33.22;;;6.10;99.90;;;;;;5053956;28;20025;-70
2024/03/08 07:12:49;;;;;;;57.42;32.22;;;5.90;1.00;;;;;;5053345;28;20021;-69
2024/03/08 07:15:15;;;;;;;56.13;31.98;;;5.60;1.00;;;;;;5059212;28;20498;-69
2024/03/08 07:17:40;;;;;;;57.63;30.73;;;6.00;99.90;;;;;;5076443;28;20055;-70
2024/03/08 07:20:07;;;;;;;57.75;31.48;;;6.60;99.90;;;;;;5072767;28;20509;-70
2024/03/08 07:22:33;;;;;;;58.85;31.98;;;6.30;99.90;;;;;;5073605;28;20505;-69
2024/03/08 07:25:30;;;;;;;62.42;32.22;;;6.30;1.00;;;;;;5073602;28;20024;-70
2024/03/08 07:27:44;;;;;;;55.88;31.33;;;6.30;1.00;;;;;;5072828;28;20021;-69
2024/03/08 07:30:11;;;;;;;58.08;29.60;;;6.50;1.00;;;;;;5073145;28;20032;-70
2024/03/08 07:32:37;;;;;;;52.72;30.33;;;5.90;51.40;;;;;;5073086;28;20036;-70
2024/03/08 07:35:04;;;;;;;56.40;30.27;;;6.50;1.00;;;;;;5072561;28;20097;-70
2024/03/08 07:37:31;;;;;;;59.28;30.33;;;6.60;99.90;;;;;;5072161;28;20033;-69
2024/03/08 07:39:58;;;;;;;54.65;31.73;;;7.50;99.90;;;;;;5072882;28;20024;-70
2024/03/08 07:42:23;;;;;;;49.83;30.63;;;8.00;87.30;;;;;;5073297;28;20024;-70
2024/03/08 07:44:50;;;;;;;51.53;30.08;;;8.00;99.90;;;;;;5073635;28;20494;-70
2024/03/08 07:47:17;;;;;;;55.45;31.27;;;7.90;1.00;;;;;;5073237;28;20436;-70
2024/03/08 07:49:43;;;;;;;52.58;31.75;;;7.90;99.90;;;;;;5072981;28;20073;-70
2024/03/08 07:52:09;;;;;;;54.70;30.92;;;8.10;99.90;;;;;;5073299;28;20028;-70
2024/03/08 07:54:35;;;;;;;52.22;31.92;;;8.10;99.90;;;;;;5073270;28;20398;-70
2024/03/08 07:57:02;;;;;;;53.00;30.45;;;8.50;99.90;;;;;;5072334;28;20067;-70
2024/03/08 07:59:29;;;;;;;50.88;30.75;;;8.30;99.90;;;;;;5072197;28;20036;-70
2024/03/08 08:01:55;;;;;;;50.17;30.58;;;8.10;99.90;;;;;;5073175;28;20021;-70
2024/03/08 08:04:24;;;;;;;50.50;30.73;;;9.20;1.00;;;;;;5073081;28;20029;-70
2024/03/08 08:06:50;;;;;;;53.15;31.25;;;8.60;1.00;;;;;;5072076;28;20486;-70
2024/03/08 08:09:22;;;;;;;53.97;31.48;;;8.20;99.90;;;;;;5072510;28;20086;-70
2024/03/08 08:11:47;;;;;;;51.60;32.25;;;8.30;99.90;;;;;;5072029;28;20477;-70
2024/03/08 08:14:14;;;;;;;56.42;31.33;;;8.10;99.90;;;;;;5072791;28;20052;-70
2024/03/08 08:16:42;;;;;;;51.33;29.88;;;7.80;99.90;;;;;;5072836;28;20486;-70
2024/03/08 08:19:08;;;;;;;53.17;31.45;;;8.60;99.90;;;;;;5073116;28;20055;-70
2024/03/08 08:21:36;;;;;;;51.45;29.25;;;8.50;98.10;;;;;;5072258;28;20064;-70
2024/03/08 08:24:03;;;;;;;51.08;29.40;;;8.50;38.90;;;;;;5072904;28;20052;-70
2024/03/08 08:26:28;;;;;;;52.95;30.85;;;8.70;31.60;;;;;;5072725;28;20028;-70
2024/03/08 08:28:54;;;;;;;52.00;30.65;;;9.00;1.00;;;;;;5072912;28;20398;-70
2024/03/08 08:31:20;;;;;;;51.17;30.23;;;9.20;1.00;;;;;;5072692;28;20042;-70
2024/03/08 08:33:45;;;;;;;50.42;29.13;;;9.20;1.00;;;;;;5072370;28;20032;-70
2024/03/08 08:36:11;;;;;;;53.08;30.27;;;9.10;1.00;;;;;;5072834;28;20040;-70
2024/03/08 08:38:36;;;;;;;48.55;29.77;;;9.50;99.90;;;;;;5073124;28;20025;-70
2024/03/08 08:41:02;;;;;;;48.03;29.85;;;9.70;99.90;;;;;;5072713;28;20498;-69
2024/03/08 08:43:28;;;;;;;49.55;30.70;;;9.30;1.00;;;;;;5072755;28;20032;-70
2024/03/08 08:45:55;;;;;;;48.17;28.83;;;9.50;1.00;;;;;;5072949;28;20042;-70
2024/03/08 08:48:20;;;;;;;51.97;30.75;;;9.60;99.90;;;;;;5074084;28;20473;-70
2024/03/08 08:50:46;;;;;;;50.35;30.17;;;8.80;1.00;;;;;;5071597;28;20027;-70
2024/03/08 08:53:14;;;;;;;52.15;30.95;;;8.20;99.90;;;;;;5072505;28;20021;-70
2024/03/08 08:55:40;;;;;;;54.03;30.13;;;8.30;99.90;;;;;;5072247;28;20454;-69
2024/03/08 08:58:07;;;;;;;50.22;29.95;;;8.30;99.90;;;;;;5069935;28;20024;-70
2024/03/08 09:00:34;;;;;;;48.65;29.02;;;8.30;1.00;;;;;;5070564;28;20082;-70
2024/03/08 09:03:00;;;;;;;50.22;29.60;;;9.40;1.00;;;;;;5070832;28;20062;-70
2024/03/08 09:05:26;;;;;;;47.97;29.52;;;9.50;99.90;;;;;;5070910;28;20056;-70
2024/03/08 09:07:52;;;;;;;47.42;29.63;;;9.60;1.00;;;;;;5071437;28;20082;-70
2024/03/08 09:10:18;;;;;;;52.42;30.17;;;9.50;99.90;;;;;;5071063;28;20024;-70
2024/03/08 09:12:44;;;;;;;46.95;28.73;;;9.80;99.90;;;;;;5074698;28;20039;-70
2024/03/08 09:15:11;;;;;;;49.38;29.80;;;9.50;99.90;;;;;;5076088;28;20043;-70
2024/03/08 09:17:39;;;;;;;46.47;29.15;;;10.00;99.90;;;;;;5083122;28;20028;-70
2024/03/08 09:20:06;;;;;;;47.03;29.35;;;10.00;99.90;;;;;;5093307;28;20363;-70
2024/03/08 09:22:32;;;;;;;44.55;28.67;;;10.00;99.90;;;;;;5075494;28;20539;-70
2024/03/08 09:24:57;;;;;;;45.05;28.38;;;9.90;99.90;;;;;;5075307;28;20020;-70
2024/03/08 09:27:24;;;;;;;50.05;30.13;;;10.20;99.90;;;;;;5075781;28;20041;-70
2024/03/08 09:29:49;;;;;;;43.13;27.48;;;9.90;99.90;;;;;;5075386;28;20048;-70
2024/03/08 09:32:15;;;;;;;51.33;28.67;;;9.70;99.90;;;;;;5075311;28;20089;-70
2024/03/08 09:34:40;;;;;;;48.30;28.38;;;10.20;99.90;;;;;;5075297;28;20045;-70
2024/03/08 09:37:08;;;;;;;45.58;28.08;;;10.20;99.90;;;;;;5075407;28;20028;-70
2024/03/08 09:39:34;;;;;;;49.53;27.63;;;10.10;99.90;;;;;;5075345;28;20059;-70
2024/03/08 09:42:00;;;;;;;47.60;29.30;;;10.50;99.90;;;;;;5075577;28;20056;-71
2024/03/08 09:44:28;;;;;;;43.38;27.23;;;;;;;;;;5075483;28;20086;-70
2024/03/08 09:46:55;;;;;;;42.53;27.23;;;11.40;99.90;;;;;;5075566;28;20028;-70
2024/03/08 09:49:20;;;;;;;47.72;28.33;;;11.60;1.00;;;;;;5075255;28;20028;-70
2024/03/08 09:51:46;;;;;;;44.55;28.05;;;11.20;5.90;;;;;;5075466;28;20033;-70
2024/03/08 09:54:12;;;;;;;42.33;27.08;;;10.50;93.30;;;;;;5075099;28;20444;-70
2024/03/08 09:56:41;;;;;;;43.75;28.17;;;10.00;99.90;;;;;;5074740;28;20043;-70
2024/03/08 09:59:32;;;;;;;44.13;26.83;;;10.00;99.90;;;;;;5074634;28;20538;-70
2024/03/08 10:01:52;;;;;;;42.80;26.13;;;10.10;99.90;;;;;;5074658;28;20491;-70
2024/03/08 10:04:18;;;;;;;40.75;26.23;;;10.20;99.90;;;;;;5074317;28;20020;-70
2024/03/08 10:06:46;;;;;;;38.42;24.60;;;9.80;99.90;;;;;;5075044;28;20044;-70
2024/03/08 10:09:13;;;;;;;44.35;26.17;;;10.50;99.90;;;;;;5074625;28;20033;-70
2024/03/08 10:11:40;;;;;;;43.30;26.10;;;11.10;62.10;;;;;;5054901;28;20047;-70
2024/03/08 10:14:06;;;;;;;38.85;25.98;;;10.40;99.90;;;;;;5093692;28;20032;-70
2024/03/08 10:16:31;;;;;;;38.20;25.10;;;11.00;99.90;;;;;;5082431;28;20020;-70
2024/03/08 10:18:57;;;;;;;43.35;26.20;;;10.40;99.90;;;;;;5066984;28;20033;-70
2024/03/08 10:21:23;;;;;;;40.15;25.52;;;10.50;99.90;;;;;;5071776;28;20127;-70
2024/03/08 10:23:48;;;;;;;42.67;25.42;;;10.60;99.90;;;;;;5072282;28;20055;-70
2024/03/08 10:26:17;;;;;;;42.28;25.63;;;10.60;99.90;;;;;;5074489;28;20124;-70
2024/03/08 10:28:47;;;;;;;43.40;25.73;;;11.30;99.90;;;;;;5070163;28;20033;-71
2024/03/08 10:31:14;;;;;;;41.70;26.23;;;11.30;59.00;;;;;;5069469;28;20364;-70
2024/03/08 10:33:41;;;;;;;42.35;25.90;;;10.70;63.70;;;;;;5072285;28;20037;-71
2024/03/08 10:36:08;;;;;;;40.03;26.00;;;10.80;99.90;;;;;;5072713;28;20119;-70
2024/03/08 10:38:36;;;;;;;42.08;25.63;;;10.90;99.90;;;;;;5072829;28;20024;-71
2024/03/08 10:41:04;;;;;;;40.22;26.80;;;11.30;99.90;;;;;;5072879;28;20389;-71
2024/03/08 10:43:40;;;;;;;37.75;24.85;;;10.60;80.80;;;;;;5072823;28;20142;-70
2024/03/08 10:46:22;;;;;;;40.15;25.80;;;10.40;99.90;;;;;;5070136;28;20085;-70
2024/03/08 10:48:49;;;;;;;39.13;25.23;;;10.20;99.90;;;;;;5072191;28;20409;-70
2024/03/08 10:51:15;;;;;;;37.70;24.30;;;10.30;99.90;;;;;;5069482;28;20028;-70
2024/03/08 10:53:42;;;;;;;37.90;24.20;;;11.20;99.90;;;;;;5072036;28;20032;-70
2024/03/08 10:56:09;;;;;;;38.53;24.13;;;11.00;99.90;;;;;;5072271;28;20043;-70
2024/03/08 10:58:37;;;;;;;39.80;24.55;;;10.60;99.90;;;;;;5073174;28;20103;-70
2024/03/08 11:01:03;;;;;;;38.40;24.40;;;11.10;99.90;;;;;;5073581;28;20025;-70
2024/03/08 11:03:45;;;;;;;43.03;26.33;;;11.10;94.20;;;;;;5074002;28;20021;-69
2024/03/08 11:06:22;;;;;;;42.17;25.00;;;11.40;99.90;;;;;;5075193;28;20036;-70
2024/03/08 11:08:50;;;;;;;39.58;24.00;;;11.20;88.80;;;;;;5072946;28;20036;-71
2024/03/08 11:11:32;;;;;;;40.30;25.23;;;11.10;99.90;;;;;;5073452;28;20028;-71
2024/03/08 11:13:59;;;;;;;40.17;26.20;;;11.10;99.90;;;;;;5070358;28;20029;-70
2024/03/08 11:19:25;;;;;;;39.95;25.52;;;10.30;99.90;;;;;;5064846;28;20385;-70
2024/03/08 11:21:58;;;;;;;38.97;25.08;;;11.20;99.90;;;;;;5032408;28;20034;-70
2024/03/08 11:24:24;;;;;;;41.92;25.50;;;11.00;99.90;;;;;;5050182;28;20044;-70
2024/03/08 11:26:57;;;;;;;35.50;22.65;;;11.10;99.90;;;;;;5050014;28;20029;-70
2024/03/08 11:34:50;;;;;;;48.72;25.45;;;10.40;99.90;;;;;;5068965;28;20379;-70
2024/03/08 11:37:17;;;;;;;42.08;24.25;;;9.60;1.00;;;;;;5068941;28;20021;-72
2024/03/08 11:39:52;;;;;;;43.58;24.83;;;9.60;1.00;;;;;;5068424;28;20024;-69
2024/03/08 11:42:19;;;;;;;40.28;23.40;;;9.80;40.80;;;;;;5069139;28;20458;-69
2024/03/08 11:44:47;;;;;;;39.20;23.98;;;9.80;64.80;;;;;;5068528;28;20115;-72
2024/03/08 11:47:14;;;;;;;57.40;24.98;;;9.80;1.00;;;;;;5065150;28;20399;-69
2024/03/08 11:49:44;;;;;;;39.45;23.92;;;10.00;1.00;;;;;;5068846;28;20055;-70
2024/03/08 11:52:13;;;;;;;42.50;24.48;;;9.80;1.00;;;;;;5069294;28;20043;-70
2024/03/08 11:54:39;;;;;;;40.75;24.65;;;9.70;49.70;;;;;;5069775;28;20502;-70
2024/03/08 11:57:05;;;;;;;38.38;23.58;;;9.50;19.20;;;;;;5069602;28;20025;-70
2024/03/08 11:59:32;;;;;;;40.85;23.95;;;9.60;82.40;;;;;;5069982;28;20029;-70
2024/03/08 12:01:59;;;;;;;41.10;24.83;;;9.70;1.90;;;;;;5069468;28;20367;-71
2024/03/08 12:04:25;;;;;;;38.60;22.40;;;9.40;99.90;;;;;;5069852;28;20119;-71
2024/03/08 12:06:50;;;;;;;37.00;23.05;;;9.50;89.40;;;;;;5069637;28;20123;-70
2024/03/08 12:09:16;;;;;;;36.35;23.25;;;9.50;1.00;;;;;;5069880;28;20129;-71
2024/03/08 12:11:42;;;;;;;41.03;24.80;;;9.60;19.90;;;;;;5069510;28;20036;-71
2024/03/08 12:14:08;;;;;;;38.72;22.92;;;9.40;99.90;;;;;;5069729;28;20028;-71
2024/03/08 12:16:36;;;;;;;37.50;23.13;;;9.40;6.70;;;;;;5069750;28;20116;-71
2024/03/08 12:19:04;;;;;;;39.67;23.42;;;9.40;99.90;;;;;;5069641;28;20028;-70
2024/03/08 12:21:32;;;;;;;41.03;23.95;;;9.60;99.90;;;;;;5069817;28;20052;-70
2024/03/08 12:24:05;;;;;;;36.83;22.92;;;9.60;76.00;;;;;;5069124;28;20109;-70
2024/03/08 12:26:32;;;;;;;37.92;22.98;;;9.90;1.00;;;;;;5069656;28;20039;-71
2024/03/08 12:29:24;;;;;;;42.42;23.15;;;10.10;1.00;;;;;;5069765;28;20563;-70
2024/03/08 12:31:52;;;;;;;41.05;24.00;;;9.90;1.00;;;;;;5069247;28;20581;-70
2024/03/08 12:34:18;;;;;;;35.58;22.13;;;9.90;1.00;;;;;;5068678;28;20040;-70
2024/03/08 12:36:47;;;;;;;39.20;22.63;;;9.90;1.00;;;;;;5068955;28;20031;-70
2024/03/08 12:39:15;;;;;;;35.67;22.75;;;10.10;1.00;;;;;;5069334;28;20029;-70
2024/03/08 12:41:42;;;;;;;35.67;21.25;;;10.10;1.00;;;;;;5069213;28;20425;-70
2024/03/08 12:44:10;;;;;;;38.58;22.48;;;10.20;99.90;;;;;;5067131;28;20056;-70
2024/03/08 12:46:40;;;;;;;34.10;19.98;;;10.10;99.90;;;;;;5055296;28;20178;-70
2024/03/08 12:49:07;;;;;;;35.13;22.13;;;9.90;99.90;;;;;;5055604;28;20427;-71